»·PEaware :: N172TT KMHV-KBFL

N172TT :: KMHV-KBFL

FLIGHT INFORMATION

Flight Status: Arrived
Operator: Privately registered:
United States
More flights under this callsign
Pilot: Thomas T. (19955)
Aircraft: CESSNA 172 SKYHAWK
(C172)
More flights by this aircraft type
Origin: KMHV Mojave
United States
Destination: KBFL Meadows
United States
More flights between these airports :: More routes between these airports
Route: +
File this flight plan on PilotEdge
Remarks:
Altitude:
(Current/Filed)
0ft
Speed:
(Current/Filed)
0kts
Departed: 19-Sep-18 11:15 AM
Arrived: 19-Sep-18 12:09 PM
Distance/Time
Traveled:
50nm/0:53
Distance/Time
To Go:
Arrived

Flight Plot

Page will automatically refresh every two minutes.

Flight plan parsing failed; only flown route is shown


Map Options




Map Legend


Flown Route
Filed Route
Departure Airport
Arrival Airport
Navaid (VOR, NDB)
Fix

Horizontal Profiles

Position Reports

Time Latitude Longitude Heading Altitude Ground
Speed
19-Sep-18 11:08 35.056590 -118.150072 359 2760ft 0kts
19-Sep-18 11:09 35.056590 -118.150072 359 2760ft 0kts
19-Sep-18 11:10 35.056607 -118.150072 357 2760ft 3kts
19-Sep-18 11:11 35.057574 -118.146875 91 2760ft 18kts
19-Sep-18 11:12 35.058237 -118.142632 1 2760ft 0kts
19-Sep-18 11:13 35.058237 -118.142632 1 2760ft 0kts
19-Sep-18 11:14 35.058237 -118.142632 1 2760ft 0kts
19-Sep-18 11:15 35.058237 -118.142632 1 2760ft 0kts
19-Sep-18 11:16 35.059159 -118.143040 265 2760ft 0kts
19-Sep-18 11:17 35.059778 -118.160756 272 3162ft 76kts
19-Sep-18 11:18 35.070856 -118.175955 341 3917ft 74kts
19-Sep-18 11:19 35.089950 -118.186492 327 4488ft 84kts
19-Sep-18 11:20 35.095959 -118.212720 283 5079ft 84kts
19-Sep-18 11:21 35.104128 -118.239683 294 5666ft 86kts
19-Sep-18 11:22 35.115475 -118.267047 298 6266ft 93kts
19-Sep-18 11:23 35.128548 -118.295231 300 6662ft 110kts
19-Sep-18 11:24 35.143693 -118.326448 300 7033ft 105kts
19-Sep-18 11:25 35.158297 -118.356360 300 7529ft 101kts
19-Sep-18 11:26 35.172480 -118.385313 300 8024ft 99kts
19-Sep-18 11:27 35.186561 -118.414032 300 8432ft 105kts
19-Sep-18 11:28 35.202449 -118.446176 301 8435ft 112kts
19-Sep-18 11:29 35.218399 -118.478602 301 8435ft 112kts
19-Sep-18 11:30 35.234428 -118.511329 300 8435ft 112kts
19-Sep-18 11:31 35.250349 -118.544057 300 8435ft 112kts
19-Sep-18 11:32 35.266336 -118.576813 300 8434ft 112kts
19-Sep-18 11:33 35.281985 -118.608865 300 8424ft 110kts
19-Sep-18 11:34 35.297867 -118.641334 301 7931ft 113kts
19-Sep-18 11:35 35.313080 -118.672544 300 7411ft 116kts
19-Sep-18 11:36 35.328636 -118.704469 300 6740ft 111kts
19-Sep-18 11:37 35.343746 -118.735541 300 6066ft 110kts
19-Sep-18 11:38 35.358992 -118.766918 300 5386ft 110kts
19-Sep-18 11:39 35.374255 -118.798360 300 4705ft 110kts
19-Sep-18 11:40 35.387821 -118.826333 300 4149ft 107kts
19-Sep-18 11:41 35.400048 -118.851568 300 3665ft 107kts
19-Sep-18 11:42 35.412421 -118.877148 300 3430ft 89kts
19-Sep-18 11:43 35.425029 -118.903380 300 3439ft 111kts
19-Sep-18 11:44 35.439598 -118.933423 300 3439ft 110kts
19-Sep-18 11:45 35.453438 -118.962177 298 3438ft 109kts
19-Sep-18 11:46 35.459101 -118.992559 278 3439ft 109kts
19-Sep-18 11:47 35.463171 -119.023658 279 3439ft 109kts
19-Sep-18 11:48 35.471328 -119.056452 291 3438ft 109kts
19-Sep-18 11:49 35.481919 -119.085231 302 3437ft 110kts
19-Sep-18 11:50 35.496512 -119.112320 305 3436ft 109kts
19-Sep-18 11:51 35.513745 -119.138708 309 3436ft 109kts
19-Sep-18 11:52 35.532069 -119.164231 312 3435ft 109kts
19-Sep-18 11:53 35.550984 -119.189649 312 3435ft 109kts
19-Sep-18 11:54 35.570359 -119.215661 312 3435ft 109kts
19-Sep-18 11:55 35.589647 -119.241536 312 3435ft 109kts
19-Sep-18 11:56 35.609060 -119.266837 312 3435ft 109kts
19-Sep-18 11:57 35.628671 -119.293100 312 3435ft 109kts
19-Sep-18 11:58 35.629904 -119.319656 213 3432ft 109kts
19-Sep-18 11:59 35.608593 -119.315230 109 3431ft 109kts
19-Sep-18 12:00 35.601205 -119.283807 105 3431ft 109kts
19-Sep-18 12:01 35.593184 -119.255155 120 3430ft 110kts
19-Sep-18 12:02 35.577815 -119.231608 133 3200ft 113kts
19-Sep-18 12:03 35.560834 -119.210360 135 2875ft 105kts
19-Sep-18 12:04 35.541778 -119.187131 135 2546ft 88kts
19-Sep-18 12:05 35.525680 -119.167467 134 2546ft 89kts
19-Sep-18 12:06 35.505566 -119.143153 135 2147ft 102kts
19-Sep-18 12:07 35.485797 -119.119158 135 1618ft 100kts
19-Sep-18 12:08 35.469268 -119.098923 133 1042ft 79kts
19-Sep-18 12:09 35.455591 -119.082409 133 785ft 68kts
19-Sep-18 12:10 35.442934 -119.067072 135 497ft 42kts
19-Sep-18 12:11 35.442252 -119.064319 99 497ft 17kts
19-Sep-18 12:12 35.438845 -119.059996 132 497ft 14kts
19-Sep-18 12:13 35.435036 -119.055421 136 497ft 18kts
19-Sep-18 12:14 35.435087 -119.053236 257 497ft 0kts

Navigation Log

Ident Type
Flight plan parsing failed, navigation log unavailable